sensor_id;sensor_type;location;lat;lon;timestamp;P1;durP1;ratioP1;P2;durP2;ratioP2
40787;SDS011;26497;52.494;7.546;2023-08-20T00:02:17;140.07;;;129.77;;
40787;SDS011;26497;52.494;7.546;2023-08-20T00:04:49;136.18;;;126.15;;
40787;SDS011;26497;52.494;7.546;2023-08-20T00:07:17;139.35;;;128.90;;
40787;SDS011;26497;52.494;7.546;2023-08-20T00:09:44;144.50;;;133.93;;
40787;SDS011;26497;52.494;7.546;2023-08-20T00:12:13;143.48;;;132.85;;
40787;SDS011;26497;52.494;7.546;2023-08-20T00:14:53;145.60;;;135.13;;
40787;SDS011;26497;52.494;7.546;2023-08-20T00:17:23;147.40;;;136.13;;
40787;SDS011;26497;52.494;7.546;2023-08-20T00:19:52;154.45;;;143.40;;
40787;SDS011;26497;52.494;7.546;2023-08-20T00:22:21;141.75;;;131.80;;
40787;SDS011;26497;52.494;7.546;2023-08-20T00:24:49;152.20;;;140.02;;
40787;SDS011;26497;52.494;7.546;2023-08-20T00:27:19;144.82;;;134.30;;
40787;SDS011;26497;52.494;7.546;2023-08-20T00:29:47;138.38;;;128.68;;
40787;SDS011;26497;52.494;7.546;2023-08-20T00:32:14;129.43;;;120.25;;
40787;SDS011;26497;52.494;7.546;2023-08-20T00:34:41;121.95;;;113.05;;
40787;SDS011;26497;52.494;7.546;2023-08-20T00:37:09;130.77;;;121.25;;
40787;SDS011;26497;52.494;7.546;2023-08-20T00:39:37;132.82;;;123.60;;
40787;SDS011;26497;52.494;7.546;2023-08-20T00:42:04;125.55;;;116.47;;
40787;SDS011;26497;52.494;7.546;2023-08-20T00:44:33;124.32;;;115.63;;
40787;SDS011;26497;52.494;7.546;2023-08-20T00:47:01;119.22;;;110.22;;
40787;SDS011;26497;52.494;7.546;2023-08-20T00:49:31;111.40;;;103.70;;
40787;SDS011;26497;52.494;7.546;2023-08-20T00:51:59;109.38;;;101.22;;
40787;SDS011;26497;52.494;7.546;2023-08-20T00:54:27;109.68;;;99.85;;
40787;SDS011;26497;52.494;7.546;2023-08-20T00:56:55;116.85;;;106.85;;
40787;SDS011;26497;52.494;7.546;2023-08-20T00:59:23;120.88;;;110.50;;
40787;SDS011;26497;52.494;7.546;2023-08-20T01:01:51;121.55;;;112.18;;
40787;SDS011;26497;52.494;7.546;2023-08-20T01:04:19;117.22;;;107.55;;
40787;SDS011;26497;52.494;7.546;2023-08-20T01:06:46;116.00;;;106.85;;
40787;SDS011;26497;52.494;7.546;2023-08-20T01:09:28;115.13;;;106.40;;
40787;SDS011;26497;52.494;7.546;2023-08-20T01:12:04;111.75;;;102.95;;
40787;SDS011;26497;52.494;7.546;2023-08-20T01:14:34;116.20;;;106.47;;
40787;SDS011;26497;52.494;7.546;2023-08-20T01:17:02;120.45;;;110.47;;
40787;SDS011;26497;52.494;7.546;2023-08-20T01:19:30;121.43;;;111.32;;
40787;SDS011;26497;52.494;7.546;2023-08-20T01:22:04;122.50;;;113.03;;
40787;SDS011;26497;52.494;7.546;2023-08-20T01:24:51;123.35;;;114.40;;
40787;SDS011;26497;52.494;7.546;2023-08-20T01:27:35;114.95;;;105.82;;
40787;SDS011;26497;52.494;7.546;2023-08-20T01:30:16;115.55;;;106.22;;
40787;SDS011;26497;52.494;7.546;2023-08-20T01:32:46;118.75;;;109.05;;
40787;SDS011;26497;52.494;7.546;2023-08-20T01:35:15;129.82;;;117.97;;
40787;SDS011;26497;52.494;7.546;2023-08-20T01:37:44;132.60;;;120.93;;
40787;SDS011;26497;52.494;7.546;2023-08-20T01:40:11;138.30;;;124.97;;
40787;SDS011;26497;52.494;7.546;2023-08-20T01:42:39;134.35;;;122.47;;
40787;SDS011;26497;52.494;7.546;2023-08-20T01:45:07;130.68;;;119.55;;
40787;SDS011;26497;52.494;7.546;2023-08-20T01:47:37;131.93;;;121.25;;
40787;SDS011;26497;52.494;7.546;2023-08-20T01:50:04;126.18;;;115.57;;
40787;SDS011;26497;52.494;7.546;2023-08-20T01:52:32;123.60;;;112.72;;
40787;SDS011;26497;52.494;7.546;2023-08-20T01:55:00;120.65;;;110.53;;
40787;SDS011;26497;52.494;7.546;2023-08-20T01:57:27;118.60;;;107.90;;
40787;SDS011;26497;52.494;7.546;2023-08-20T01:59:54;122.75;;;113.20;;
40787;SDS011;26497;52.494;7.546;2023-08-20T02:02:23;125.70;;;115.15;;
40787;SDS011;26497;52.494;7.546;2023-08-20T02:04:51;119.35;;;107.65;;
40787;SDS011;26497;52.494;7.546;2023-08-20T02:07:18;126.97;;;115.50;;
40787;SDS011;26497;52.494;7.546;2023-08-20T02:09:45;122.93;;;111.93;;
40787;SDS011;26497;52.494;7.546;2023-08-20T02:12:13;128.02;;;117.22;;
40787;SDS011;26497;52.494;7.546;2023-08-20T02:14:40;118.47;;;108.55;;
40787;SDS011;26497;52.494;7.546;2023-08-20T02:17:08;118.45;;;108.30;;
40787;SDS011;26497;52.494;7.546;2023-08-20T02:19:37;126.05;;;114.40;;
40787;SDS011;26497;52.494;7.546;2023-08-20T02:22:08;125.07;;;114.05;;
40787;SDS011;26497;52.494;7.546;2023-08-20T02:24:36;128.13;;;116.43;;
40787;SDS011;26497;52.494;7.546;2023-08-20T02:27:03;127.70;;;115.15;;
40787;SDS011;26497;52.494;7.546;2023-08-20T02:29:30;125.82;;;115.38;;
40787;SDS011;26497;52.494;7.546;2023-08-20T02:31:57;127.85;;;116.10;;
40787;SDS011;26497;52.494;7.546;2023-08-20T02:34:24;124.47;;;114.32;;
40787;SDS011;26497;52.494;7.546;2023-08-20T02:36:51;123.45;;;112.20;;
40787;SDS011;26497;52.494;7.546;2023-08-20T02:39:20;123.15;;;110.50;;
40787;SDS011;26497;52.494;7.546;2023-08-20T02:41:49;132.57;;;120.30;;
40787;SDS011;26497;52.494;7.546;2023-08-20T02:44:16;130.50;;;119.20;;
40787;SDS011;26497;52.494;7.546;2023-08-20T02:46:43;130.88;;;118.38;;
40787;SDS011;26497;52.494;7.546;2023-08-20T02:49:10;135.40;;;123.15;;
40787;SDS011;26497;52.494;7.546;2023-08-20T02:51:39;139.32;;;125.70;;
40787;SDS011;26497;52.494;7.546;2023-08-20T02:54:09;143.32;;;129.35;;
40787;SDS011;26497;52.494;7.546;2023-08-20T02:56:37;159.70;;;145.48;;
40787;SDS011;26497;52.494;7.546;2023-08-20T02:59:04;160.38;;;146.40;;
40787;SDS011;26497;52.494;7.546;2023-08-20T03:01:31;156.93;;;141.65;;
40787;SDS011;26497;52.494;7.546;2023-08-20T03:03:59;150.23;;;136.90;;
40787;SDS011;26497;52.494;7.546;2023-08-20T03:06:26;156.95;;;140.98;;
40787;SDS011;26497;52.494;7.546;2023-08-20T03:08:53;138.80;;;124.22;;
40787;SDS011;26497;52.494;7.546;2023-08-20T03:11:20;131.30;;;119.00;;
40787;SDS011;26497;52.494;7.546;2023-08-20T03:13:48;133.13;;;119.40;;
40787;SDS011;26497;52.494;7.546;2023-08-20T03:16:16;130.82;;;117.90;;
40787;SDS011;26497;52.494;7.546;2023-08-20T03:18:43;122.55;;;111.43;;
40787;SDS011;26497;52.494;7.546;2023-08-20T03:21:10;128.32;;;115.28;;
40787;SDS011;26497;52.494;7.546;2023-08-20T03:23:37;132.40;;;120.07;;
40787;SDS011;26497;52.494;7.546;2023-08-20T03:26:04;131.27;;;118.80;;
40787;SDS011;26497;52.494;7.546;2023-08-20T03:28:31;128.05;;;114.75;;
40787;SDS011;26497;52.494;7.546;2023-08-20T03:31:00;127.60;;;115.05;;
40787;SDS011;26497;52.494;7.546;2023-08-20T03:33:27;128.27;;;115.60;;
40787;SDS011;26497;52.494;7.546;2023-08-20T03:35:54;122.05;;;110.95;;
40787;SDS011;26497;52.494;7.546;2023-08-20T03:38:21;128.70;;;116.32;;
40787;SDS011;26497;52.494;7.546;2023-08-20T03:40:49;125.82;;;114.80;;
40787;SDS011;26497;52.494;7.546;2023-08-20T03:43:16;120.30;;;109.47;;
40787;SDS011;26497;52.494;7.546;2023-08-20T03:45:44;124.22;;;112.07;;
40787;SDS011;26497;52.494;7.546;2023-08-20T03:50:44;104.22;;;94.05;;
40787;SDS011;26497;52.494;7.546;2023-08-20T03:53:11;112.45;;;102.05;;
40787;SDS011;26497;52.494;7.546;2023-08-20T03:55:38;108.60;;;99.00;;
40787;SDS011;26497;52.494;7.546;2023-08-20T03:58:05;115.65;;;105.95;;
40787;SDS011;26497;52.494;7.546;2023-08-20T04:00:34;118.70;;;107.50;;
40787;SDS011;26497;52.494;7.546;2023-08-20T04:03:01;124.05;;;111.18;;
40787;SDS011;26497;52.494;7.546;2023-08-20T04:05:34;123.53;;;111.88;;
40787;SDS011;26497;52.494;7.546;2023-08-20T04:08:03;117.00;;;105.65;;
40787;SDS011;26497;52.494;7.546;2023-08-20T04:10:31;120.85;;;108.72;;
40787;SDS011;26497;52.494;7.546;2023-08-20T04:12:58;111.07;;;101.25;;
40787;SDS011;26497;52.494;7.546;2023-08-20T04:15:25;117.68;;;106.28;;
40787;SDS011;26497;52.494;7.546;2023-08-20T04:17:52;129.73;;;115.63;;
40787;SDS011;26497;52.494;7.546;2023-08-20T04:20:19;134.65;;;121.35;;
40787;SDS011;26497;52.494;7.546;2023-08-20T04:22:48;129.05;;;117.72;;
40787;SDS011;26497;52.494;7.546;2023-08-20T04:27:45;100.18;;;91.10;;
40787;SDS011;26497;52.494;7.546;2023-08-20T04:30:12;114.03;;;103.57;;
40787;SDS011;26497;52.494;7.546;2023-08-20T04:32:39;116.07;;;104.43;;
40787;SDS011;26497;52.494;7.546;2023-08-20T04:35:07;120.55;;;109.13;;
40787;SDS011;26497;52.494;7.546;2023-08-20T04:37:35;108.38;;;98.95;;
40787;SDS011;26497;52.494;7.546;2023-08-20T04:40:04;113.30;;;102.13;;
40787;SDS011;26497;52.494;7.546;2023-08-20T04:42:33;117.40;;;106.35;;
40787;SDS011;26497;52.494;7.546;2023-08-20T04:45:00;116.40;;;105.03;;
40787;SDS011;26497;52.494;7.546;2023-08-20T04:47:27;116.45;;;105.40;;
40787;SDS011;26497;52.494;7.546;2023-08-20T04:49:54;119.95;;;109.20;;
40787;SDS011;26497;52.494;7.546;2023-08-20T04:52:22;117.70;;;107.07;;
40787;SDS011;26497;52.494;7.546;2023-08-20T04:54:49;119.30;;;108.07;;
40787;SDS011;26497;52.494;7.546;2023-08-20T04:57:17;128.70;;;114.80;;
40787;SDS011;26497;52.494;7.546;2023-08-20T04:59:45;126.47;;;114.63;;
40787;SDS011;26497;52.494;7.546;2023-08-20T05:02:12;119.85;;;108.80;;
40787;SDS011;26497;52.494;7.546;2023-08-20T05:04:39;121.70;;;108.50;;
40787;SDS011;26497;52.494;7.546;2023-08-20T05:07:06;121.75;;;110.40;;
40787;SDS011;26497;52.494;7.546;2023-08-20T05:09:34;114.85;;;105.00;;
40787;SDS011;26497;52.494;7.546;2023-08-20T05:12:01;111.32;;;101.30;;
40787;SDS011;26497;52.494;7.546;2023-08-20T05:14:30;111.40;;;101.93;;
40787;SDS011;26497;52.494;7.546;2023-08-20T05:16:58;109.72;;;100.45;;
40787;SDS011;26497;52.494;7.546;2023-08-20T05:19:25;121.88;;;110.68;;
40787;SDS011;26497;52.494;7.546;2023-08-20T05:21:52;123.25;;;113.55;;
40787;SDS011;26497;52.494;7.546;2023-08-20T05:24:23;123.28;;;113.78;;
40787;SDS011;26497;52.494;7.546;2023-08-20T05:27:03;133.50;;;121.97;;
40787;SDS011;26497;52.494;7.546;2023-08-20T05:29:33;122.95;;;112.38;;
40787;SDS011;26497;52.494;7.546;2023-08-20T05:32:00;130.75;;;117.97;;
40787;SDS011;26497;52.494;7.546;2023-08-20T05:34:28;133.45;;;122.68;;
40787;SDS011;26497;52.494;7.546;2023-08-20T05:36:55;145.88;;;132.85;;
40787;SDS011;26497;52.494;7.546;2023-08-20T05:39:22;163.20;;;149.55;;
40787;SDS011;26497;52.494;7.546;2023-08-20T05:41:50;167.82;;;155.43;;
40787;SDS011;26497;52.494;7.546;2023-08-20T05:44:18;175.82;;;162.02;;
40787;SDS011;26497;52.494;7.546;2023-08-20T05:46:46;189.45;;;174.93;;
40787;SDS011;26497;52.494;7.546;2023-08-20T05:49:14;188.70;;;174.50;;
40787;SDS011;26497;52.494;7.546;2023-08-20T05:51:41;180.48;;;167.85;;
40787;SDS011;26497;52.494;7.546;2023-08-20T05:54:09;169.98;;;154.90;;
40787;SDS011;26497;52.494;7.546;2023-08-20T05:56:36;177.30;;;162.77;;
40787;SDS011;26497;52.494;7.546;2023-08-20T05:59:03;180.32;;;166.38;;
40787;SDS011;26497;52.494;7.546;2023-08-20T06:01:30;173.13;;;160.00;;
40787;SDS011;26497;52.494;7.546;2023-08-20T06:03:59;179.75;;;165.32;;
40787;SDS011;26497;52.494;7.546;2023-08-20T06:06:26;190.68;;;175.60;;
40787;SDS011;26497;52.494;7.546;2023-08-20T06:08:54;190.05;;;175.88;;
40787;SDS011;26497;52.494;7.546;2023-08-20T06:11:21;194.63;;;180.00;;
40787;SDS011;26497;52.494;7.546;2023-08-20T06:13:48;194.32;;;180.55;;
40787;SDS011;26497;52.494;7.546;2023-08-20T06:16:16;186.35;;;173.50;;
40787;SDS011;26497;52.494;7.546;2023-08-20T06:18:43;189.77;;;174.27;;
40787;SDS011;26497;52.494;7.546;2023-08-20T06:21:11;196.45;;;181.77;;
40787;SDS011;26497;52.494;7.546;2023-08-20T06:23:39;190.15;;;177.18;;
40787;SDS011;26497;52.494;7.546;2023-08-20T06:26:06;209.18;;;192.40;;
40787;SDS011;26497;52.494;7.546;2023-08-20T06:28:36;182.30;;;168.02;;
40787;SDS011;26497;52.494;7.546;2023-08-20T06:31:03;175.48;;;163.07;;
40787;SDS011;26497;52.494;7.546;2023-08-20T06:33:30;166.52;;;153.82;;
40787;SDS011;26497;52.494;7.546;2023-08-20T06:35:58;141.07;;;130.77;;
40787;SDS011;26497;52.494;7.546;2023-08-20T06:38:26;153.48;;;141.60;;
40787;SDS011;26497;52.494;7.546;2023-08-20T06:40:53;173.15;;;160.88;;
40787;SDS011;26497;52.494;7.546;2023-08-20T06:43:21;286.33;;;269.83;;
40787;SDS011;26497;52.494;7.546;2023-08-20T06:45:49;189.05;;;177.98;;
40787;SDS011;26497;52.494;7.546;2023-08-20T06:48:17;131.00;;;123.15;;
40787;SDS011;26497;52.494;7.546;2023-08-20T06:50:47;85.88;;;79.63;;
40787;SDS011;26497;52.494;7.546;2023-08-20T06:53:14;138.77;;;130.55;;
40787;SDS011;26497;52.494;7.546;2023-08-20T06:55:43;138.40;;;129.85;;
40787;SDS011;26497;52.494;7.546;2023-08-20T07:01:48;1999.90;;;999.90;;
40787;SDS011;26497;52.494;7.546;2023-08-20T07:04:22;1999.90;;;999.90;;
40787;SDS011;26497;52.494;7.546;2023-08-20T07:06:50;1999.90;;;999.90;;
40787;SDS011;26497;52.494;7.546;2023-08-20T07:09:18;1999.90;;;999.90;;
40787;SDS011;26497;52.494;7.546;2023-08-20T07:11:46;1999.90;;;999.90;;
40787;SDS011;26497;52.494;7.546;2023-08-20T07:14:14;1999.90;;;999.90;;
40787;SDS011;26497;52.494;7.546;2023-08-20T07:26:52;1999.90;;;999.90;;
40787;SDS011;26497;52.494;7.546;2023-08-20T07:29:25;1999.90;;;999.90;;
40787;SDS011;26497;52.494;7.546;2023-08-20T07:31:58;1999.90;;;999.90;;
40787;SDS011;26497;52.494;7.546;2023-08-20T07:34:28;1999.90;;;999.90;;
40787;SDS011;26497;52.494;7.546;2023-08-20T07:36:59;1999.90;;;999.90;;
40787;SDS011;26497;52.494;7.546;2023-08-20T07:39:28;1999.90;;;999.90;;
40787;SDS011;26497;52.494;7.546;2023-08-20T07:42:01;1999.90;;;999.90;;
40787;SDS011;26497;52.494;7.546;2023-08-20T07:44:35;1999.90;;;999.90;;
40787;SDS011;26497;52.494;7.546;2023-08-20T07:53:41;1999.90;;;999.90;;
40787;SDS011;26497;52.494;7.546;2023-08-20T07:56:08;1999.90;;;999.90;;
40787;SDS011;26497;52.494;7.546;2023-08-20T07:58:37;1999.90;;;999.90;;
40787;SDS011;26497;52.494;7.546;2023-08-20T08:01:07;1999.90;;;999.90;;
40787;SDS011;26497;52.494;7.546;2023-08-20T08:03:34;1999.90;;;999.90;;
40787;SDS011;26497;52.494;7.546;2023-08-20T08:06:01;1999.90;;;999.90;;
40787;SDS011;26497;52.494;7.546;2023-08-20T08:08:28;1999.90;;;999.90;;
40787;SDS011;26497;52.494;7.546;2023-08-20T08:10:58;1999.90;;;999.90;;
40787;SDS011;26497;52.494;7.546;2023-08-20T08:13:25;1999.90;;;999.90;;
40787;SDS011;26497;52.494;7.546;2023-08-20T08:15:54;1999.90;;;999.90;;
40787;SDS011;26497;52.494;7.546;2023-08-20T08:18:23;1999.90;;;999.90;;
40787;SDS011;26497;52.494;7.546;2023-08-20T08:20:50;1999.90;;;999.90;;
40787;SDS011;26497;52.494;7.546;2023-08-20T08:23:18;1999.90;;;999.90;;
40787;SDS011;26497;52.494;7.546;2023-08-20T08:25:45;1999.90;;;999.90;;
40787;SDS011;26497;52.494;7.546;2023-08-20T08:28:12;1999.90;;;999.90;;
40787;SDS011;26497;52.494;7.546;2023-08-20T08:30:40;1999.90;;;999.90;;
40787;SDS011;26497;52.494;7.546;2023-08-20T08:33:11;1999.90;;;999.90;;
40787;SDS011;26497;52.494;7.546;2023-08-20T08:35:38;1999.90;;;999.90;;
40787;SDS011;26497;52.494;7.546;2023-08-20T08:38:06;1999.90;;;999.90;;
40787;SDS011;26497;52.494;7.546;2023-08-20T08:40:33;1999.90;;;999.90;;
40787;SDS011;26497;52.494;7.546;2023-08-20T08:43:00;1999.90;;;999.90;;
40787;SDS011;26497;52.494;7.546;2023-08-20T08:45:29;1999.90;;;999.90;;
40787;SDS011;26497;52.494;7.546;2023-08-20T08:47:56;1999.90;;;999.90;;
40787;SDS011;26497;52.494;7.546;2023-08-20T08:50:32;1999.90;;;999.90;;
40787;SDS011;26497;52.494;7.546;2023-08-20T08:53:00;1999.90;;;999.90;;
40787;SDS011;26497;52.494;7.546;2023-08-20T08:55:28;1999.90;;;999.90;;
40787;SDS011;26497;52.494;7.546;2023-08-20T08:57:55;1999.90;;;999.90;;
40787;SDS011;26497;52.494;7.546;2023-08-20T09:00:23;1999.90;;;999.90;;
40787;SDS011;26497;52.494;7.546;2023-08-20T09:02:50;1999.90;;;999.90;;
40787;SDS011;26497;52.494;7.546;2023-08-20T09:05:17;1999.90;;;999.90;;
40787;SDS011;26497;52.494;7.546;2023-08-20T09:07:46;1999.90;;;999.90;;
40787;SDS011;26497;52.494;7.546;2023-08-20T09:10:21;1999.90;;;999.90;;
40787;SDS011;26497;52.494;7.546;2023-08-20T09:12:51;1999.90;;;999.90;;
40787;SDS011;26497;52.494;7.546;2023-08-20T09:15:22;1999.90;;;999.90;;
40787;SDS011;26497;52.494;7.546;2023-08-20T09:18:00;1999.90;;;999.90;;
40787;SDS011;26497;52.494;7.546;2023-08-20T09:20:35;1999.90;;;999.90;;
40787;SDS011;26497;52.494;7.546;2023-08-20T09:23:04;1999.90;;;999.90;;
40787;SDS011;26497;52.494;7.546;2023-08-20T09:25:38;1999.90;;;999.90;;
40787;SDS011;26497;52.494;7.546;2023-08-20T09:28:05;1999.90;;;999.90;;
40787;SDS011;26497;52.494;7.546;2023-08-20T09:30:33;1999.90;;;999.90;;
40787;SDS011;26497;52.494;7.546;2023-08-20T09:33:04;1999.90;;;999.90;;
40787;SDS011;26497;52.494;7.546;2023-08-20T09:35:36;1999.90;;;999.90;;
40787;SDS011;26497;52.494;7.546;2023-08-20T09:38:05;1999.90;;;999.90;;
40787;SDS011;26497;52.494;7.546;2023-08-20T09:40:32;1999.90;;;999.90;;
40787;SDS011;26497;52.494;7.546;2023-08-20T09:43:02;1999.90;;;999.90;;
40787;SDS011;26497;52.494;7.546;2023-08-20T09:45:33;1999.90;;;999.90;;
40787;SDS011;26497;52.494;7.546;2023-08-20T09:48:04;1999.90;;;999.90;;
40787;SDS011;26497;52.494;7.546;2023-08-20T09:50:35;1999.90;;;999.90;;
40787;SDS011;26497;52.494;7.546;2023-08-20T09:53:10;1999.90;;;999.90;;
40787;SDS011;26497;52.494;7.546;2023-08-20T09:55:49;1999.90;;;999.90;;
40787;SDS011;26497;52.494;7.546;2023-08-20T09:58:21;1999.90;;;999.90;;
40787;SDS011;26497;52.494;7.546;2023-08-20T10:00:52;1999.90;;;999.90;;
40787;SDS011;26497;52.494;7.546;2023-08-20T10:03:24;1999.90;;;999.90;;
40787;SDS011;26497;52.494;7.546;2023-08-20T10:05:55;1999.90;;;999.90;;
40787;SDS011;26497;52.494;7.546;2023-08-20T10:08:27;1999.90;;;999.90;;
40787;SDS011;26497;52.494;7.546;2023-08-20T10:10:55;1999.90;;;999.90;;
40787;SDS011;26497;52.494;7.546;2023-08-20T10:13:27;1999.90;;;999.90;;
40787;SDS011;26497;52.494;7.546;2023-08-20T10:34:51;1999.90;;;999.90;;
40787;SDS011;26497;52.494;7.546;2023-08-20T10:37:27;1999.90;;;999.90;;
40787;SDS011;26497;52.494;7.546;2023-08-20T10:39:54;1999.90;;;999.90;;
40787;SDS011;26497;52.494;7.546;2023-08-20T10:42:25;1999.90;;;999.90;;
40787;SDS011;26497;52.494;7.546;2023-08-20T10:44:56;1999.90;;;999.90;;
40787;SDS011;26497;52.494;7.546;2023-08-20T10:47:41;1999.90;;;999.90;;
40787;SDS011;26497;52.494;7.546;2023-08-20T10:50:11;1999.90;;;999.90;;
40787;SDS011;26497;52.494;7.546;2023-08-20T10:52:46;1999.90;;;999.90;;
40787;SDS011;26497;52.494;7.546;2023-08-20T10:55:15;1999.90;;;999.90;;
40787;SDS011;26497;52.494;7.546;2023-08-20T10:57:50;1999.90;;;999.90;;
40787;SDS011;26497;52.494;7.546;2023-08-20T11:00:24;1999.90;;;999.90;;
40787;SDS011;26497;52.494;7.546;2023-08-20T11:02:53;1999.90;;;999.90;;
40787;SDS011;26497;52.494;7.546;2023-08-20T11:05:22;1999.90;;;999.90;;
40787;SDS011;26497;52.494;7.546;2023-08-20T11:07:50;1999.90;;;999.90;;
40787;SDS011;26497;52.494;7.546;2023-08-20T11:10:17;1999.90;;;999.90;;
40787;SDS011;26497;52.494;7.546;2023-08-20T11:12:45;1999.90;;;999.90;;
40787;SDS011;26497;52.494;7.546;2023-08-20T11:15:13;1999.90;;;999.90;;
40787;SDS011;26497;52.494;7.546;2023-08-20T11:17:40;1999.90;;;999.90;;
40787;SDS011;26497;52.494;7.546;2023-08-20T11:20:09;1999.90;;;999.90;;
40787;SDS011;26497;52.494;7.546;2023-08-20T11:22:39;1999.90;;;999.90;;
40787;SDS011;26497;52.494;7.546;2023-08-20T11:25:10;1999.90;;;999.90;;
40787;SDS011;26497;52.494;7.546;2023-08-20T11:27:40;1999.90;;;999.90;;
40787;SDS011;26497;52.494;7.546;2023-08-20T11:30:08;1999.90;;;999.90;;
40787;SDS011;26497;52.494;7.546;2023-08-20T11:32:37;1999.90;;;999.90;;
40787;SDS011;26497;52.494;7.546;2023-08-20T11:35:04;1999.90;;;999.90;;
40787;SDS011;26497;52.494;7.546;2023-08-20T11:37:33;1999.90;;;999.90;;
40787;SDS011;26497;52.494;7.546;2023-08-20T11:40:02;1999.90;;;999.90;;
40787;SDS011;26497;52.494;7.546;2023-08-20T11:42:33;1999.90;;;999.90;;
40787;SDS011;26497;52.494;7.546;2023-08-20T11:45:01;1999.90;;;999.90;;
40787;SDS011;26497;52.494;7.546;2023-08-20T11:47:28;1999.90;;;999.90;;
40787;SDS011;26497;52.494;7.546;2023-08-20T11:50:02;1999.90;;;999.90;;
40787;SDS011;26497;52.494;7.546;2023-08-20T11:52:31;1999.90;;;999.90;;
40787;SDS011;26497;52.494;7.546;2023-08-20T11:54:58;1999.90;;;999.90;;
40787;SDS011;26497;52.494;7.546;2023-08-20T11:57:27;1999.90;;;999.90;;
40787;SDS011;26497;52.494;7.546;2023-08-20T11:59:59;1999.90;;;999.90;;
40787;SDS011;26497;52.494;7.546;2023-08-20T12:02:33;1999.90;;;999.90;;
40787;SDS011;26497;52.494;7.546;2023-08-20T12:05:00;1999.90;;;999.90;;
40787;SDS011;26497;52.494;7.546;2023-08-20T12:07:29;1999.90;;;999.90;;
40787;SDS011;26497;52.494;7.546;2023-08-20T12:10:19;1999.90;;;999.90;;
40787;SDS011;26497;52.494;7.546;2023-08-20T12:12:49;1999.90;;;999.90;;
40787;SDS011;26497;52.494;7.546;2023-08-20T12:15:28;1999.90;;;999.90;;
40787;SDS011;26497;52.494;7.546;2023-08-20T12:17:59;1999.90;;;999.90;;
40787;SDS011;26497;52.494;7.546;2023-08-20T12:20:29;1999.90;;;999.90;;
40787;SDS011;26497;52.494;7.546;2023-08-20T12:23:01;1999.90;;;999.90;;
40787;SDS011;26497;52.494;7.546;2023-08-20T12:25:33;1999.90;;;999.90;;
40787;SDS011;26497;52.494;7.546;2023-08-20T12:31:26;1999.90;;;999.90;;
40787;SDS011;26497;52.494;7.546;2023-08-20T12:33:53;1999.90;;;999.90;;
40787;SDS011;26497;52.494;7.546;2023-08-20T12:36:20;1999.90;;;999.90;;
40787;SDS011;26497;52.494;7.546;2023-08-20T12:38:47;1999.90;;;999.90;;
40787;SDS011;26497;52.494;7.546;2023-08-20T12:41:14;1999.90;;;999.90;;
40787;SDS011;26497;52.494;7.546;2023-08-20T12:43:44;1999.90;;;999.90;;
40787;SDS011;26497;52.494;7.546;2023-08-20T12:46:19;1999.90;;;999.90;;
40787;SDS011;26497;52.494;7.546;2023-08-20T12:48:52;1999.90;;;999.90;;
40787;SDS011;26497;52.494;7.546;2023-08-20T12:51:22;1999.90;;;999.90;;
40787;SDS011;26497;52.494;7.546;2023-08-20T12:53:50;1999.90;;;999.90;;
40787;SDS011;26497;52.494;7.546;2023-08-20T12:56:17;1999.90;;;999.90;;
40787;SDS011;26497;52.494;7.546;2023-08-20T12:58:45;1999.90;;;999.90;;
40787;SDS011;26497;52.494;7.546;2023-08-20T13:01:12;1999.90;;;999.90;;
40787;SDS011;26497;52.494;7.546;2023-08-20T13:03:40;1999.90;;;999.90;;
40787;SDS011;26497;52.494;7.546;2023-08-20T13:06:09;1999.90;;;999.90;;
40787;SDS011;26497;52.494;7.546;2023-08-20T13:08:37;1999.90;;;999.90;;
40787;SDS011;26497;52.494;7.546;2023-08-20T13:11:07;1999.90;;;999.90;;
40787;SDS011;26497;52.494;7.546;2023-08-20T13:13:36;1999.90;;;999.90;;
40787;SDS011;26497;52.494;7.546;2023-08-20T13:16:04;1999.90;;;999.90;;
40787;SDS011;26497;52.494;7.546;2023-08-20T13:18:33;1999.90;;;999.90;;
40787;SDS011;26497;52.494;7.546;2023-08-20T13:21:02;1999.90;;;999.90;;
40787;SDS011;26497;52.494;7.546;2023-08-20T13:23:35;1999.90;;;999.90;;
40787;SDS011;26497;52.494;7.546;2023-08-20T13:26:02;1999.90;;;999.90;;
40787;SDS011;26497;52.494;7.546;2023-08-20T13:28:30;1999.90;;;999.90;;
40787;SDS011;26497;52.494;7.546;2023-08-20T13:30:58;1999.90;;;999.90;;
40787;SDS011;26497;52.494;7.546;2023-08-20T13:33:25;1999.90;;;999.90;;
40787;SDS011;26497;52.494;7.546;2023-08-20T13:35:52;1999.90;;;999.90;;
40787;SDS011;26497;52.494;7.546;2023-08-20T13:38:20;1999.90;;;999.90;;
40787;SDS011;26497;52.494;7.546;2023-08-20T13:40:48;1999.90;;;999.90;;
40787;SDS011;26497;52.494;7.546;2023-08-20T13:43:18;1999.90;;;999.90;;
40787;SDS011;26497;52.494;7.546;2023-08-20T13:45:48;1999.90;;;999.90;;
40787;SDS011;26497;52.494;7.546;2023-08-20T13:48:15;1999.90;;;999.90;;
40787;SDS011;26497;52.494;7.546;2023-08-20T13:50:45;1999.90;;;999.90;;
40787;SDS011;26497;52.494;7.546;2023-08-20T13:53:15;1999.90;;;999.90;;
40787;SDS011;26497;52.494;7.546;2023-08-20T13:55:44;1999.90;;;999.90;;
40787;SDS011;26497;52.494;7.546;2023-08-20T13:58:14;1999.90;;;999.90;;
40787;SDS011;26497;52.494;7.546;2023-08-20T14:00:41;1999.90;;;999.90;;
40787;SDS011;26497;52.494;7.546;2023-08-20T14:03:08;1999.90;;;999.90;;
40787;SDS011;26497;52.494;7.546;2023-08-20T14:05:36;1999.90;;;999.90;;
40787;SDS011;26497;52.494;7.546;2023-08-20T14:08:03;1999.90;;;999.90;;
40787;SDS011;26497;52.494;7.546;2023-08-20T14:10:31;1999.90;;;999.90;;
40787;SDS011;26497;52.494;7.546;2023-08-20T14:13:00;1999.90;;;999.90;;
40787;SDS011;26497;52.494;7.546;2023-08-20T14:15:28;1999.90;;;999.90;;
40787;SDS011;26497;52.494;7.546;2023-08-20T14:17:55;1999.90;;;999.90;;
40787;SDS011;26497;52.494;7.546;2023-08-20T14:20:22;1999.90;;;999.90;;
40787;SDS011;26497;52.494;7.546;2023-08-20T14:22:52;1999.90;;;999.90;;
40787;SDS011;26497;52.494;7.546;2023-08-20T14:25:21;1999.90;;;999.90;;
40787;SDS011;26497;52.494;7.546;2023-08-20T14:27:49;1999.90;;;999.90;;
40787;SDS011;26497;52.494;7.546;2023-08-20T14:30:17;1999.90;;;999.90;;
40787;SDS011;26497;52.494;7.546;2023-08-20T14:32:44;1999.90;;;999.90;;
40787;SDS011;26497;52.494;7.546;2023-08-20T14:35:11;1999.90;;;999.90;;
40787;SDS011;26497;52.494;7.546;2023-08-20T14:37:38;1999.90;;;999.90;;
40787;SDS011;26497;52.494;7.546;2023-08-20T14:40:06;1999.90;;;999.90;;
40787;SDS011;26497;52.494;7.546;2023-08-20T14:42:36;1999.90;;;999.90;;
40787;SDS011;26497;52.494;7.546;2023-08-20T14:45:05;1999.90;;;999.90;;
40787;SDS011;26497;52.494;7.546;2023-08-20T14:53:40;1999.90;;;999.90;;
40787;SDS011;26497;52.494;7.546;2023-08-20T14:56:08;1999.90;;;999.90;;